Time;durP1;ratioP1;P1;durP2;ratioP2;P2;SDS_P1;SDS_P2;PMS_P1;PMS_P2;Temp;Humidity;BMP_temperature;BMP_pressure;BME280_temperature;BME280_humidity;BME280_pressure;Samples;Min_cycle;Max_cycle;Signal;HPM_P1;HPM_P2
2022/08/27 00:01:01;;;;;;;3.72;3.38;;;;;;;;;;5050822;28;20293;-62
2022/08/27 00:03:28;;;;;;;3.70;3.40;;;;;;;;;;5059148;28;20208;-61
2022/08/27 00:05:55;;;;;;;3.50;3.30;;;;;;;;;;5060310;28;20215;-63
2022/08/27 00:08:22;;;;;;;3.65;3.00;;;;;;;;;;5055910;28;20226;-61
2022/08/27 00:10:49;;;;;;;4.45;3.83;;;;;;;;;;5062278;28;20661;-62
2022/08/27 00:13:17;;;;;;;3.45;3.25;;;;;;;;;;5058899;28;20199;-62
2022/08/27 00:15:44;;;;;;;3.78;3.38;;;;;;;;;;5051344;28;20204;-63
2022/08/27 00:18:13;;;;;;;3.75;3.50;;;;;;;;;;5067019;28;20705;-62
2022/08/27 00:20:40;;;;;;;3.47;3.28;;;;;;;;;;5056612;28;20673;-63
2022/08/27 00:23:07;;;;;;;3.03;2.92;;;;;;;;;;5067366;28;20235;-62
2022/08/27 00:25:34;;;;;;;4.00;3.70;;;;;;;;;;5063991;28;20204;-62
2022/08/27 00:28:01;;;;;;;3.33;3.13;;;;;;;;;;5060699;28;20227;-62
2022/08/27 00:30:28;;;;;;;3.25;3.05;;;;;;;;;;5053039;28;20677;-62
2022/08/27 00:32:56;;;;;;;3.60;3.40;;;;;;;;;;5047777;28;20211;-62
2022/08/27 00:35:25;;;;;;;3.53;3.20;;;;;;;;;;5047783;28;20208;-62
2022/08/27 00:37:52;;;;;;;4.20;3.75;;;;;;;;;;5048694;28;20282;-62
2022/08/27 00:40:21;;;;;;;3.67;3.38;;;;;;;;;;5047133;28;20219;-63
2022/08/27 00:42:49;;;;;;;3.78;3.47;;;;;;;;;;5047433;28;20806;-62
2022/08/27 00:45:18;;;;;;;3.40;3.20;;;;;;;;;;5047193;28;20582;-63
2022/08/27 00:47:47;;;;;;;3.38;3.08;;;;;;;;;;5047492;28;20223;-62
2022/08/27 00:50:15;;;;;;;4.38;3.97;;;;;;;;;;5047491;28;20207;-62
2022/08/27 00:52:45;;;;;;;3.72;3.45;;;;;;;;;;5047586;28;20261;-62
2022/08/27 00:55:14;;;;;;;3.70;3.50;;;;;;;;;;5046956;28;20212;-62
2022/08/27 00:57:42;;;;;;;3.83;3.45;;;;;;;;;;5047598;28;20288;-61
2022/08/27 01:00:11;;;;;;;3.35;3.15;;;;;;;;;;5057012;28;20211;-61
2022/08/27 01:02:39;;;;;;;3.78;3.47;;;;;;;;;;5061193;28;20204;-62
2022/08/27 01:05:08;;;;;;;3.80;3.42;;;;;;;;;;5058473;28;20211;-62
2022/08/27 01:07:36;;;;;;;6.32;3.25;;;;;;;;;;5057947;28;20226;-62
2022/08/27 01:10:07;;;;;;;4.10;3.38;;;;;;;;;;5066131;28;20666;-62
2022/08/27 01:12:34;;;;;;;3.67;3.47;;;;;;;;;;5066321;28;20231;-62
2022/08/27 01:15:01;;;;;;;3.78;3.22;;;;;;;;;;5053833;28;20290;-62
2022/08/27 01:17:28;;;;;;;6.75;3.38;;;;;;;;;;5069262;28;20227;-62
2022/08/27 01:19:57;;;;;;;4.20;3.63;;;;;;;;;;5067463;28;20291;-62
2022/08/27 01:22:29;;;;;;;3.63;3.38;;;;;;;;;;5050093;28;20230;-62
2022/08/27 01:24:59;;;;;;;3.65;3.35;;;;;;;;;;5053596;28;20250;-62
2022/08/27 01:27:30;;;;;;;4.30;3.70;;;;;;;;;;5060918;28;20598;-61
2022/08/27 01:29:57;;;;;;;3.80;3.55;;;;;;;;;;5065714;28;20211;-62
2022/08/27 01:32:25;;;;;;;4.28;3.75;;;;;;;;;;5053398;28;20297;-62
2022/08/27 01:34:53;;;;;;;4.05;3.72;;;;;;;;;;5051184;28;20287;-62
2022/08/27 01:37:21;;;;;;;4.25;3.65;;;;;;;;;;5054139;28;20294;-62
2022/08/27 01:39:48;;;;;;;4.82;4.18;;;;;;;;;;5064005;28;20202;-62
2022/08/27 01:42:18;;;;;;;3.58;3.28;;;;;;;;;;5066372;28;20625;-62
2022/08/27 01:44:47;;;;;;;4.07;3.70;;;;;;;;;;5055908;28;20689;-62
2022/08/27 01:47:15;;;;;;;4.28;3.97;;;;;;;;;;5049520;28;20208;-62
2022/08/27 01:49:42;;;;;;;3.53;3.33;;;;;;;;;;5048795;28;20685;-62
2022/08/27 01:52:09;;;;;;;4.90;3.50;;;;;;;;;;5049892;28;20211;-62
2022/08/27 01:54:36;;;;;;;3.65;3.42;;;;;;;;;;5059200;28;20215;-62
2022/08/27 01:57:03;;;;;;;3.58;3.38;;;;;;;;;;5052106;28;20695;-62
2022/08/27 01:59:32;;;;;;;3.50;3.30;;;;;;;;;;5053910;28;20200;-62
2022/08/27 02:01:59;;;;;;;3.85;3.15;;;;;;;;;;5050124;28;20250;-62
2022/08/27 02:04:26;;;;;;;3.72;3.42;;;;;;;;;;5049478;28;20726;-62
2022/08/27 02:06:53;;;;;;;3.40;3.17;;;;;;;;;;5049940;28;20617;-62
2022/08/27 02:09:20;;;;;;;3.80;3.17;;;;;;;;;;5052475;28;20239;-62
2022/08/27 02:11:47;;;;;;;3.60;3.30;;;;;;;;;;5060640;28;20268;-62
2022/08/27 02:14:14;;;;;;;3.25;3.05;;;;;;;;;;5049529;28;20586;-62
2022/08/27 02:16:42;;;;;;;3.15;3.05;;;;;;;;;;5049129;28;20207;-62
2022/08/27 02:19:10;;;;;;;3.38;3.17;;;;;;;;;;5049348;28;20214;-61
2022/08/27 02:21:37;;;;;;;2.97;2.78;;;;;;;;;;5054238;28;20289;-62
2022/08/27 02:24:04;;;;;;;4.00;3.60;;;;;;;;;;5060799;28;20199;-62
2022/08/27 02:26:31;;;;;;;3.55;3.33;;;;;;;;;;5061709;28;20212;-62
2022/08/27 02:28:59;;;;;;;3.25;3.03;;;;;;;;;;5060594;28;20277;-62
2022/08/27 02:31:26;;;;;;;4.47;3.60;;;;;;;;;;5056182;28;20285;-62
2022/08/27 02:33:54;;;;;;;4.03;3.67;;;;;;;;;;5061837;28;20200;-62
2022/08/27 02:36:21;;;;;;;5.57;3.45;;;;;;;;;;5048801;28;20204;-62
2022/08/27 02:38:48;;;;;;;4.47;3.60;;;;;;;;;;5049315;28;20207;-62
2022/08/27 02:41:16;;;;;;;5.85;3.38;;;;;;;;;;5048923;28;20232;-63
2022/08/27 02:43:43;;;;;;;4.47;3.22;;;;;;;;;;5049550;28;20642;-63
2022/08/27 02:46:10;;;;;;;4.38;3.10;;;;;;;;;;5054869;28;20237;-63
2022/08/27 02:48:38;;;;;;;3.72;3.53;;;;;;;;;;5055011;28;20227;-61
2022/08/27 02:51:07;;;;;;;6.07;3.60;;;;;;;;;;5062065;28;20211;-62
2022/08/27 02:53:34;;;;;;;3.33;3.13;;;;;;;;;;5063646;28;20222;-62
2022/08/27 02:56:01;;;;;;;4.30;3.55;;;;;;;;;;5055075;28;20212;-61
2022/08/27 02:58:28;;;;;;;4.40;3.80;;;;;;;;;;5057060;28;20206;-62
2022/08/27 03:00:56;;;;;;;3.85;3.55;;;;;;;;;;5054535;28;20265;-62
2022/08/27 03:03:23;;;;;;;4.30;3.25;;;;;;;;;;5058723;28;20632;-63
2022/08/27 03:05:50;;;;;;;3.20;3.00;;;;;;;;;;5059192;28;20216;-62
2022/08/27 03:08:18;;;;;;;3.85;3.47;;;;;;;;;;5060384;28;20235;-62
2022/08/27 03:10:45;;;;;;;4.82;3.63;;;;;;;;;;5054751;28;20939;-62
2022/08/27 03:13:12;;;;;;;3.28;3.17;;;;;;;;;;5055190;28;20234;-62
2022/08/27 03:15:39;;;;;;;4.55;3.80;;;;;;;;;;5059594;28;20211;-62
2022/08/27 03:18:17;;;;;;;5.63;3.50;;;;;;;;;;5059278;28;20313;-61
2022/08/27 03:20:46;;;;;;;4.15;3.75;;;;;;;;;;5060284;28;20195;-62
2022/08/27 03:23:14;;;;;;;4.60;4.10;;;;;;;;;;5051235;28;20289;-62
2022/08/27 03:25:45;;;;;;;4.38;3.97;;;;;;;;;;5058465;28;20227;-62
2022/08/27 03:28:13;;;;;;;4.85;3.35;;;;;;;;;;5047288;28;20323;-62
2022/08/27 03:30:41;;;;;;;4.35;4.03;;;;;;;;;;5060525;28;20222;-61
2022/08/27 03:33:09;;;;;;;4.47;4.07;;;;;;;;;;5047305;28;20204;-61
2022/08/27 03:35:36;;;;;;;4.07;3.63;;;;;;;;;;5046923;28;20212;-62
2022/08/27 03:38:03;;;;;;;3.90;3.33;;;;;;;;;;5047869;28;20204;-62
2022/08/27 03:40:30;;;;;;;4.07;3.88;;;;;;;;;;5047455;28;20211;-62
2022/08/27 03:42:58;;;;;;;3.95;3.63;;;;;;;;;;5058697;28;20244;-62
2022/08/27 03:45:26;;;;;;;5.22;3.90;;;;;;;;;;5059761;28;20211;-62
2022/08/27 03:47:53;;;;;;;4.63;4.15;;;;;;;;;;5056394;28;20227;-62
2022/08/27 03:50:20;;;;;;;5.95;4.40;;;;;;;;;;5054413;28;20215;-62
2022/08/27 03:52:47;;;;;;;4.25;3.95;;;;;;;;;;5056324;28;20217;-62
2022/08/27 03:55:15;;;;;;;4.75;4.10;;;;;;;;;;5061311;28;20195;-63
2022/08/27 03:57:42;;;;;;;3.88;3.60;;;;;;;;;;5058079;28;20195;-62
2022/08/27 04:00:11;;;;;;;4.55;4.15;;;;;;;;;;5054241;28;20203;-63
2022/08/27 04:02:38;;;;;;;4.78;4.15;;;;;;;;;;5051367;28;20212;-62
2022/08/27 04:05:06;;;;;;;6.95;4.35;;;;;;;;;;5063864;28;20206;-61
2022/08/27 04:07:33;;;;;;;5.78;4.28;;;;;;;;;;5057556;28;20302;-62
2022/08/27 04:10:00;;;;;;;4.38;3.55;;;;;;;;;;5060424;28;20226;-62
2022/08/27 04:12:27;;;;;;;5.32;4.20;;;;;;;;;;5046299;28;20212;-61
2022/08/27 04:14:54;;;;;;;6.22;4.10;;;;;;;;;;5046642;28;20208;-62
2022/08/27 04:17:23;;;;;;;4.88;4.35;;;;;;;;;;5050378;28;20631;-61
2022/08/27 04:19:51;;;;;;;5.50;4.30;;;;;;;;;;5054720;28;20267;-62
2022/08/27 04:22:19;;;;;;;4.88;3.92;;;;;;;;;;5053974;28;20660;-61
2022/08/27 04:24:46;;;;;;;6.82;4.47;;;;;;;;;;5060666;28;20210;-60
2022/08/27 04:27:13;;;;;;;8.07;4.75;;;;;;;;;;5050230;28;20261;-61
2022/08/27 04:29:44;;;;;;;7.57;4.38;;;;;;;;;;5056964;28;20231;-61
2022/08/27 04:32:11;;;;;;;9.23;4.32;;;;;;;;;;5053600;28;20999;-61
2022/08/27 04:34:39;;;;;;;4.70;3.88;;;;;;;;;;5058799;28;20549;-61
2022/08/27 04:37:06;;;;;;;5.97;4.38;;;;;;;;;;5059274;28;20206;-61
2022/08/27 04:39:33;;;;;;;6.20;4.45;;;;;;;;;;5053074;28;20204;-61
2022/08/27 04:42:01;;;;;;;4.20;3.85;;;;;;;;;;5048630;28;20285;-61
2022/08/27 04:44:29;;;;;;;5.90;4.07;;;;;;;;;;5064905;28;20218;-61
2022/08/27 04:46:57;;;;;;;6.65;3.75;;;;;;;;;;5066015;28;21766;-61
2022/08/27 04:49:25;;;;;;;5.63;3.95;;;;;;;;;;5065123;28;20218;-61
2022/08/27 04:51:53;;;;;;;4.07;3.85;;;;;;;;;;5061332;28;20289;-61
2022/08/27 04:54:20;;;;;;;6.18;4.13;;;;;;;;;;5064096;28;20383;-61
2022/08/27 04:56:47;;;;;;;6.68;4.13;;;;;;;;;;5061259;28;20204;-61
2022/08/27 04:59:14;;;;;;;5.32;3.65;;;;;;;;;;5065245;28;20195;-61
2022/08/27 05:01:43;;;;;;;3.67;3.47;;;;;;;;;;5061129;28;20256;-61
2022/08/27 05:04:11;;;;;;;4.05;3.70;;;;;;;;;;5051451;28;20214;-61
2022/08/27 05:06:38;;;;;;;4.10;3.70;;;;;;;;;;5061325;28;20214;-61
2022/08/27 05:09:07;;;;;;;3.90;3.53;;;;;;;;;;5052646;28;20227;-61
2022/08/27 05:11:34;;;;;;;4.00;3.58;;;;;;;;;;5050620;28;20210;-61
2022/08/27 05:14:03;;;;;;;4.43;4.03;;;;;;;;;;5052351;28;20289;-61
2022/08/27 05:16:30;;;;;;;5.22;3.80;;;;;;;;;;5048968;28;20666;-61
2022/08/27 05:18:58;;;;;;;3.67;3.33;;;;;;;;;;5056227;28;20281;-61
2022/08/27 05:21:26;;;;;;;4.45;3.90;;;;;;;;;;5068477;28;20242;-61
2022/08/27 05:23:54;;;;;;;3.90;3.60;;;;;;;;;;5050028;28;20203;-68
2022/08/27 05:26:22;;;;;;;5.68;4.20;;;;;;;;;;5051320;28;20204;-64
2022/08/27 05:28:49;;;;;;;5.82;3.63;;;;;;;;;;5054841;28;20749;-66
2022/08/27 05:31:18;;;;;;;3.97;3.38;;;;;;;;;;5065639;28;20439;-65
2022/08/27 05:33:46;;;;;;;4.80;4.10;;;;;;;;;;5066520;28;20243;-66
2022/08/27 05:36:17;;;;;;;4.32;3.17;;;;;;;;;;5049066;28;20207;-66
2022/08/27 05:38:44;;;;;;;3.65;3.35;;;;;;;;;;5065125;28;21007;-66
2022/08/27 05:41:13;;;;;;;4.45;3.60;;;;;;;;;;5050638;28;20286;-67
2022/08/27 05:43:42;;;;;;;3.90;3.58;;;;;;;;;;5048969;28;20285;-66
2022/08/27 05:46:10;;;;;;;4.07;3.63;;;;;;;;;;5064640;28;20210;-66
2022/08/27 05:48:38;;;;;;;4.90;3.70;;;;;;;;;;5061253;28;20219;-66
2022/08/27 05:51:09;;;;;;;4.05;3.70;;;;;;;;;;5058172;28;20211;-66
2022/08/27 05:53:37;;;;;;;6.05;3.95;;;;;;;;;;5056879;28;20207;-65
2022/08/27 05:56:05;;;;;;;4.20;3.50;;;;;;;;;;5052179;28;20289;-65
2022/08/27 06:01:33;;;;;;;4.20;3.85;;;;;;;;;;5003481;28;20828;-65
2022/08/27 06:04:00;;;;;;;4.85;4.13;;;;;;;;;;4990050;28;20217;-65
2022/08/27 06:06:27;;;;;;;4.20;3.83;;;;;;;;;;5029241;28;20210;-65
2022/08/27 06:08:55;;;;;;;4.38;3.97;;;;;;;;;;5071566;28;20701;-66
2022/08/27 06:11:22;;;;;;;5.43;4.20;;;;;;;;;;5058109;28;20208;-66
2022/08/27 06:13:49;;;;;;;4.82;3.78;;;;;;;;;;5051536;28;20294;-66
2022/08/27 06:16:18;;;;;;;4.25;3.92;;;;;;;;;;5052017;28;20215;-66
2022/08/27 06:18:48;;;;;;;4.20;3.75;;;;;;;;;;5071563;28;20812;-66
2022/08/27 06:21:16;;;;;;;4.00;3.72;;;;;;;;;;5059373;28;20230;-66
2022/08/27 06:23:43;;;;;;;3.83;3.47;;;;;;;;;;5051585;28;20204;-66
2022/08/27 06:26:11;;;;;;;3.40;3.20;;;;;;;;;;5051097;28;20208;-66
2022/08/27 06:28:39;;;;;;;3.85;3.65;;;;;;;;;;5050944;28;20199;-67
2022/08/27 06:31:07;;;;;;;4.03;3.42;;;;;;;;;;5063919;28;20208;-66
2022/08/27 06:33:35;;;;;;;4.10;3.70;;;;;;;;;;5047701;28;20236;-66
2022/08/27 06:36:05;;;;;;;3.58;3.22;;;;;;;;;;5055728;28;20623;-65
2022/08/27 06:38:32;;;;;;;3.38;3.17;;;;;;;;;;5059092;28;20824;-67
2022/08/27 06:40:59;;;;;;;3.72;3.45;;;;;;;;;;5058041;28;20202;-66
2022/08/27 06:43:27;;;;;;;3.67;3.45;;;;;;;;;;5050370;28;20216;-66
2022/08/27 06:45:54;;;;;;;4.15;3.63;;;;;;;;;;5064793;28;20230;-67
2022/08/27 06:48:21;;;;;;;4.10;3.80;;;;;;;;;;5052800;28;20212;-66
2022/08/27 06:50:48;;;;;;;3.95;3.65;;;;;;;;;;5052918;28;20219;-67
2022/08/27 06:53:17;;;;;;;4.22;3.88;;;;;;;;;;5063395;28;20208;-66
2022/08/27 06:55:45;;;;;;;3.97;3.25;;;;;;;;;;5059333;28;20297;-66
2022/08/27 06:58:12;;;;;;;3.50;3.30;;;;;;;;;;5065123;28;20203;-66
2022/08/27 07:00:39;;;;;;;3.45;3.20;;;;;;;;;;5052704;28;20226;-66
2022/08/27 07:03:08;;;;;;;3.40;3.22;;;;;;;;;;5053059;28;20211;-66
2022/08/27 07:05:36;;;;;;;3.28;3.08;;;;;;;;;;5052951;28;20208;-65
2022/08/27 07:08:03;;;;;;;3.90;3.55;;;;;;;;;;5065320;28;20211;-65
2022/08/27 07:10:33;;;;;;;3.55;3.20;;;;;;;;;;5061613;28;20780;-64
2022/08/27 07:13:00;;;;;;;5.13;3.38;;;;;;;;;;5057270;28;20278;-65
2022/08/27 07:15:27;;;;;;;2.95;2.85;;;;;;;;;;5048094;28;20211;-65
2022/08/27 07:17:55;;;;;;;3.55;3.35;;;;;;;;;;5053580;28;20246;-65
2022/08/27 07:20:22;;;;;;;4.07;3.78;;;;;;;;;;5060474;28;20670;-66
2022/08/27 07:22:52;;;;;;;3.97;3.17;;;;;;;;;;5050072;28;20227;-67
2022/08/27 07:25:20;;;;;;;3.60;3.35;;;;;;;;;;5049793;28;20265;-66
2022/08/27 07:27:48;;;;;;;4.40;3.65;;;;;;;;;;5068863;28;20652;-64
2022/08/27 07:30:17;;;;;;;4.03;3.72;;;;;;;;;;5061282;28;20226;-66
2022/08/27 07:32:44;;;;;;;6.30;3.92;;;;;;;;;;5068165;28;20199;-65
2022/08/27 07:35:11;;;;;;;6.47;3.60;;;;;;;;;;5069806;28;20219;-66
2022/08/27 07:37:39;;;;;;;3.75;3.45;;;;;;;;;;5069249;28;20199;-66
2022/08/27 07:40:08;;;;;;;3.85;3.10;;;;;;;;;;5060909;28;20207;-65
2022/08/27 07:45:21;;;;;;;6.45;3.47;;;;;;;;;;5066489;28;20201;-65
2022/08/27 07:47:50;;;;;;;3.47;3.17;;;;;;;;;;5064394;28;20677;-66
2022/08/27 07:50:18;;;;;;;6.65;3.95;;;;;;;;;;5055675;28;20219;-67
2022/08/27 07:52:45;;;;;;;3.20;3.00;;;;;;;;;;5052666;28;20955;-63
2022/08/27 07:55:13;;;;;;;4.53;3.25;;;;;;;;;;5049352;28;20204;-63
2022/08/27 07:57:40;;;;;;;4.05;3.63;;;;;;;;;;5060849;28;20277;-63
2022/08/27 08:00:09;;;;;;;3.95;3.63;;;;;;;;;;5055311;28;20590;-64
2022/08/27 08:02:38;;;;;;;3.33;3.10;;;;;;;;;;5055206;28;20227;-66
2022/08/27 08:05:06;;;;;;;4.85;4.00;;;;;;;;;;5064569;28;20293;-65
2022/08/27 08:07:34;;;;;;;3.50;3.30;;;;;;;;;;5050385;28;20211;-66
2022/08/27 08:10:02;;;;;;;3.65;3.35;;;;;;;;;;5066671;28;20230;-66
2022/08/27 08:12:30;;;;;;;7.93;3.13;;;;;;;;;;5062819;28;20200;-66
2022/08/27 08:14:57;;;;;;;3.47;3.22;;;;;;;;;;5060394;28;20218;-67
2022/08/27 08:17:25;;;;;;;4.75;3.35;;;;;;;;;;5066704;28;20310;-65
2022/08/27 08:19:54;;;;;;;3.83;3.53;;;;;;;;;;5068145;28;20199;-67
2022/08/27 08:22:21;;;;;;;3.28;3.00;;;;;;;;;;5063897;28;20239;-65
2022/08/27 08:24:48;;;;;;;3.08;2.90;;;;;;;;;;5056085;28;20208;-66
2022/08/27 08:27:15;;;;;;;3.47;3.28;;;;;;;;;;5056056;28;20203;-66
2022/08/27 08:29:42;;;;;;;5.15;4.13;;;;;;;;;;5059852;28;20611;-65
2022/08/27 08:32:09;;;;;;;3.72;2.67;;;;;;;;;;5061221;28;20287;-66
2022/08/27 08:34:36;;;;;;;4.43;3.28;;;;;;;;;;5055408;28;20215;-66
2022/08/27 08:37:05;;;;;;;3.90;3.50;;;;;;;;;;5055022;28;20221;-66
2022/08/27 08:39:32;;;;;;;3.03;2.83;;;;;;;;;;5066947;28;20210;-66
2022/08/27 08:42:01;;;;;;;3.60;3.30;;;;;;;;;;5061508;28;20203;-66
2022/08/27 08:44:31;;;;;;;3.20;3.00;;;;;;;;;;5064244;28;20243;-75
2022/08/27 08:47:00;;;;;;;3.47;2.75;;;;;;;;;;5067045;28;20261;-65
2022/08/27 08:49:33;;;;;;;2.90;2.47;;;;;;;;;;5055355;28;20555;-64
2022/08/27 08:52:04;;;;;;;2.60;2.50;;;;;;;;;;5057701;28;20226;-66
2022/08/27 08:54:34;;;;;;;2.55;2.45;;;;;;;;;;5056280;28;20215;-65
2022/08/27 08:57:04;;;;;;;2.15;2.05;;;;;;;;;;5047786;28;20227;-64
2022/08/27 08:59:32;;;;;;;2.35;2.25;;;;;;;;;;5059847;28;20229;-63
2022/08/27 09:01:59;;;;;;;2.55;2.35;;;;;;;;;;5054139;28;20298;-64
2022/08/27 09:04:27;;;;;;;2.63;2.53;;;;;;;;;;5063280;28;20222;-65
2022/08/27 09:06:58;;;;;;;2.60;2.28;;;;;;;;;;5048812;28;20211;-65
2022/08/27 09:09:27;;;;;;;3.00;2.80;;;;;;;;;;5061553;28;20214;-64
2022/08/27 09:12:00;;;;;;;2.58;2.47;;;;;;;;;;5053932;28;20215;-64
2022/08/27 09:14:33;;;;;;;2.50;2.25;;;;;;;;;;5049877;28;20196;-63
2022/08/27 09:17:01;;;;;;;2.83;2.72;;;;;;;;;;5054673;28;20235;-63
2022/08/27 09:19:28;;;;;;;2.25;2.13;;;;;;;;;;5066686;28;20210;-64
2022/08/27 09:21:59;;;;;;;2.58;2.42;;;;;;;;;;5053342;28;20243;-64
2022/08/27 09:24:32;;;;;;;2.67;2.58;;;;;;;;;;5049814;28;20207;-64
2022/08/27 09:27:00;;;;;;;2.35;2.28;;;;;;;;;;5065431;28;20207;-64
2022/08/27 09:29:29;;;;;;;2.50;2.40;;;;;;;;;;5058376;28;20210;-64
2022/08/27 09:31:57;;;;;;;2.45;2.35;;;;;;;;;;5060047;28;20228;-63
2022/08/27 09:34:24;;;;;;;2.58;2.47;;;;;;;;;;5048482;28;20212;-64
2022/08/27 09:36:54;;;;;;;2.72;2.55;;;;;;;;;;5064808;28;20202;-64
2022/08/27 09:39:26;;;;;;;2.63;2.47;;;;;;;;;;5052549;28;20214;-62
2022/08/27 09:41:53;;;;;;;3.00;2.55;;;;;;;;;;5053201;28;20204;-63
2022/08/27 09:44:22;;;;;;;3.55;2.67;;;;;;;;;;5067817;28;20208;-63
2022/08/27 09:46:53;;;;;;;3.22;2.63;;;;;;;;;;5061323;28;20338;-63
2022/08/27 09:49:21;;;;;;;3.10;2.95;;;;;;;;;;5049456;28;20211;-63
2022/08/27 09:51:48;;;;;;;2.85;2.70;;;;;;;;;;5050835;28;20234;-64
2022/08/27 09:54:37;;;;;;;9.90;2.40;;;;;;;;;;5050344;28;20220;-63
2022/08/27 09:57:04;;;;;;;2.67;2.47;;;;;;;;;;5050857;28;20290;-63
2022/08/27 09:59:35;;;;;;;2.40;2.30;;;;;;;;;;5052891;28;20206;-63
2022/08/27 10:02:04;;;;;;;2.55;2.45;;;;;;;;;;5069001;28;20204;-63
2022/08/27 10:04:35;;;;;;;2.83;2.60;;;;;;;;;;5069263;28;20207;-64
2022/08/27 10:07:15;;;;;;;2.90;2.65;;;;;;;;;;5068381;28;20208;-64
2022/08/27 10:09:47;;;;;;;2.60;2.40;;;;;;;;;;5058060;28;20272;-63
2022/08/27 10:12:20;;;;;;;2.50;2.30;;;;;;;;;;5070392;28;20211;-63
2022/08/27 10:14:51;;;;;;;2.72;2.53;;;;;;;;;;5067118;28;20257;-63
2022/08/27 10:17:21;;;;;;;3.20;2.40;;;;;;;;;;5050684;28;20250;-63
2022/08/27 10:19:57;;;;;;;2.65;2.55;;;;;;;;;;5061397;28;20206;-64
2022/08/27 10:22:31;;;;;;;4.43;2.85;;;;;;;;;;5060229;28;20321;-64
2022/08/27 10:25:03;;;;;;;2.20;2.10;;;;;;;;;;5053811;28;20196;-64
2022/08/27 10:27:34;;;;;;;2.75;2.55;;;;;;;;;;5058536;28;20204;-63
2022/08/27 10:30:06;;;;;;;2.65;2.55;;;;;;;;;;5063929;28;20381;-65
2022/08/27 10:32:44;;;;;;;2.50;2.40;;;;;;;;;;5052789;28;20311;-63
2022/08/27 10:35:15;;;;;;;2.72;2.60;;;;;;;;;;5051985;28;20214;-62
2022/08/27 10:37:46;;;;;;;2.60;2.50;;;;;;;;;;5061135;28;20203;-62
2022/08/27 10:40:16;;;;;;;2.85;2.70;;;;;;;;;;5058575;28;20268;-63
2022/08/27 10:42:49;;;;;;;3.42;2.75;;;;;;;;;;5055060;28;20208;-62
2022/08/27 10:45:24;;;;;;;3.05;2.67;;;;;;;;;;5066365;28;20207;-61
2022/08/27 10:47:56;;;;;;;2.50;2.40;;;;;;;;;;5055145;28;20290;-63
2022/08/27 10:50:27;;;;;;;4.30;2.70;;;;;;;;;;5052830;28;20219;-63
2022/08/27 10:52:59;;;;;;;2.33;2.22;;;;;;;;;;5063353;28;20294;-63
2022/08/27 10:55:31;;;;;;;2.25;2.17;;;;;;;;;;5058643;28;20211;-65
2022/08/27 10:58:07;;;;;;;2.45;2.35;;;;;;;;;;5050401;28;20204;-64
2022/08/27 11:00:40;;;;;;;2.33;2.22;;;;;;;;;;5059254;28;20298;-66
2022/08/27 11:03:09;;;;;;;2.40;2.30;;;;;;;;;;5060496;28;20210;-64
2022/08/27 11:05:39;;;;;;;2.30;2.20;;;;;;;;;;5066202;28;20214;-64
2022/08/27 11:08:10;;;;;;;2.20;2.05;;;;;;;;;;5069368;28;20665;-64
2022/08/27 11:10:40;;;;;;;2.30;2.20;;;;;;;;;;5061856;28;20426;-64
2022/08/27 11:13:10;;;;;;;3.20;2.50;;;;;;;;;;5052546;28;20210;-65
2022/08/27 11:15:41;;;;;;;2.53;2.30;;;;;;;;;;5049559;28;20204;-65
2022/08/27 11:18:14;;;;;;;2.00;2.00;;;;;;;;;;5049284;28;20235;-65
2022/08/27 11:20:52;;;;;;;2.17;2.08;;;;;;;;;;5048970;28;20199;-65
2022/08/27 11:23:22;;;;;;;2.22;2.13;;;;;;;;;;5049073;28;20325;-66
2022/08/27 11:25:54;;;;;;;2.60;2.47;;;;;;;;;;5049250;28;20265;-65
2022/08/27 11:28:24;;;;;;;2.58;2.47;;;;;;;;;;5051662;28;20211;-63
2022/08/27 11:30:57;;;;;;;2.20;2.10;;;;;;;;;;5052004;28;20223;-65
2022/08/27 11:33:27;;;;;;;2.20;2.10;;;;;;;;;;5061756;28;20686;-63
2022/08/27 11:36:06;;;;;;;2.17;2.17;;;;;;;;;;5062651;28;20206;-64
2022/08/27 11:38:53;;;;;;;2.25;2.25;;;;;;;;;;5049487;28;20298;-65
2022/08/27 11:41:30;;;;;;;2.08;2.00;;;;;;;;;;5060430;28;20199;-64
2022/08/27 11:43:59;;;;;;;3.00;2.58;;;;;;;;;;5065864;28;20234;-66
2022/08/27 11:46:29;;;;;;;2.80;2.70;;;;;;;;;;5057327;28;20207;-65
2022/08/27 11:48:57;;;;;;;2.65;2.55;;;;;;;;;;5051009;28;20215;-62
2022/08/27 11:51:28;;;;;;;2.67;2.58;;;;;;;;;;5057516;28;20320;-64
2022/08/27 11:53:57;;;;;;;2.97;2.30;;;;;;;;;;5049069;28;20219;-66
2022/08/27 11:56:36;;;;;;;2.65;2.45;;;;;;;;;;5062735;28;20264;-63
2022/08/27 11:59:09;;;;;;;2.25;2.15;;;;;;;;;;5050914;28;20207;-63
2022/08/27 12:01:39;;;;;;;2.10;2.00;;;;;;;;;;5067338;28;20207;-67
2022/08/27 12:04:08;;;;;;;2.60;2.40;;;;;;;;;;5069151;28;20217;-67
2022/08/27 12:06:41;;;;;;;2.50;2.40;;;;;;;;;;5057838;28;20211;-69
2022/08/27 12:09:14;;;;;;;2.50;2.40;;;;;;;;;;5049342;28;20207;-69
2022/08/27 12:11:47;;;;;;;3.38;2.72;;;;;;;;;;5049026;28;20223;-69
2022/08/27 12:14:24;;;;;;;2.78;2.60;;;;;;;;;;5052090;28;20302;-71
2022/08/27 12:16:58;;;;;;;2.50;2.30;;;;;;;;;;5055249;28;20758;-70
2022/08/27 12:19:33;;;;;;;3.63;2.58;;;;;;;;;;5052816;28;20289;-70
2022/08/27 12:22:13;;;;;;;3.05;2.38;;;;;;;;;;5066892;28;20230;-69
2022/08/27 12:24:48;;;;;;;2.28;2.28;;;;;;;;;;5053337;28;20269;-69
2022/08/27 12:27:27;;;;;;;2.08;2.08;;;;;;;;;;5063185;28;20262;-70
2022/08/27 12:29:55;;;;;;;2.30;2.20;;;;;;;;;;5062019;28;20297;-69
2022/08/27 12:32:28;;;;;;;2.30;2.20;;;;;;;;;;5048574;28;20238;-69
2022/08/27 12:35:02;;;;;;;2.50;2.40;;;;;;;;;;5066502;28;20206;-70
2022/08/27 12:37:30;;;;;;;2.22;2.13;;;;;;;;;;5068207;28;20221;-70
2022/08/27 12:39:59;;;;;;;4.40;3.15;;;;;;;;;;5057946;28;20208;-69
2022/08/27 12:42:26;;;;;;;2.65;2.55;;;;;;;;;;5049063;28;20218;-69
2022/08/27 12:44:58;;;;;;;2.60;2.50;;;;;;;;;;5058375;28;20200;-69
2022/08/27 12:47:25;;;;;;;2.90;2.70;;;;;;;;;;5053741;28;20204;-69
2022/08/27 12:49:56;;;;;;;2.03;2.00;;;;;;;;;;5054284;28;20206;-69
2022/08/27 12:52:38;;;;;;;2.90;2.70;;;;;;;;;;5054029;28;20693;-70
2022/08/27 12:55:10;;;;;;;2.78;2.67;;;;;;;;;;5063317;28;20305;-65
2022/08/27 12:57:41;;;;;;;2.65;2.55;;;;;;;;;;5059154;28;20207;-67
2022/08/27 13:00:11;;;;;;;2.55;2.35;;;;;;;;;;5065249;28;20452;-67
2022/08/27 13:02:49;;;;;;;2.30;2.20;;;;;;;;;;5048207;28;20293;-67
2022/08/27 13:05:20;;;;;;;2.10;2.00;;;;;;;;;;5060573;28;20291;-66
2022/08/27 13:07:48;;;;;;;2.35;2.25;;;;;;;;;;5048368;28;20287;-66
2022/08/27 13:10:17;;;;;;;2.25;2.15;;;;;;;;;;5066464;28;20239;-65
2022/08/27 13:12:45;;;;;;;2.50;2.40;;;;;;;;;;5051277;28;20223;-70
2022/08/27 13:15:13;;;;;;;2.88;2.70;;;;;;;;;;5050069;28;20208;-77
2022/08/27 13:17:42;;;;;;;2.88;2.67;;;;;;;;;;5054600;28;20293;-68
2022/08/27 13:20:14;;;;;;;2.33;2.25;;;;;;;;;;5048794;28;20701;-72
2022/08/27 13:22:43;;;;;;;2.55;2.40;;;;;;;;;;5051013;28;20238;-64
2022/08/27 13:25:20;;;;;;;1.98;1.98;;;;;;;;;;5047890;28;20214;-66
2022/08/27 13:27:52;;;;;;;2.50;2.40;;;;;;;;;;5046190;28;20238;-68
2022/08/27 13:30:20;;;;;;;2.22;2.13;;;;;;;;;;5046423;28;20294;-68
2022/08/27 13:32:48;;;;;;;2.20;2.10;;;;;;;;;;5057937;28;20696;-68
2022/08/27 13:35:17;;;;;;;2.30;2.20;;;;;;;;;;5050334;28;20696;-68
2022/08/27 13:37:46;;;;;;;2.50;2.40;;;;;;;;;;5055808;28;20927;-68
2022/08/27 13:40:23;;;;;;;2.58;2.47;;;;;;;;;;5061681;28;20685;-68
2022/08/27 13:42:51;;;;;;;2.55;2.38;;;;;;;;;;5046993;28;20196;-68
2022/08/27 13:45:18;;;;;;;2.35;2.20;;;;;;;;;;5047183;28;20206;-68
2022/08/27 13:47:47;;;;;;;2.28;2.17;;;;;;;;;;5045229;28;20261;-69
2022/08/27 13:50:18;;;;;;;2.50;2.40;;;;;;;;;;5045889;28;20299;-68
2022/08/27 13:55:28;;;;;;;2.30;2.10;;;;;;;;;;5047248;28;20751;-67
2022/08/27 13:57:56;;;;;;;2.53;2.10;;;;;;;;;;5047351;28;20236;-68
2022/08/27 14:00:25;;;;;;;2.20;2.10;;;;;;;;;;5054940;28;20295;-67
2022/08/27 14:02:52;;;;;;;2.40;2.30;;;;;;;;;;5060525;28;20260;-69
2022/08/27 14:05:28;;;;;;;2.40;2.30;;;;;;;;;;5053197;28;20195;-62
2022/08/27 14:07:57;;;;;;;2.67;2.47;;;;;;;;;;5066475;28;20617;-62
2022/08/27 14:10:34;;;;;;;2.35;2.25;;;;;;;;;;5048183;28;20211;-63
2022/08/27 14:13:03;;;;;;;2.60;2.45;;;;;;;;;;5062151;28;20230;-67
2022/08/27 14:15:32;;;;;;;2.70;2.50;;;;;;;;;;5065024;28;20711;-67
2022/08/27 14:17:59;;;;;;;2.40;2.20;;;;;;;;;;5062086;28;20231;-67
2022/08/27 14:20:27;;;;;;;2.17;2.08;;;;;;;;;;5064550;28;20199;-68
2022/08/27 14:22:54;;;;;;;2.05;2.05;;;;;;;;;;5050623;28;20828;-68
2022/08/27 14:25:22;;;;;;;2.28;2.08;;;;;;;;;;5057336;28;20792;-64
2022/08/27 14:27:51;;;;;;;2.42;2.22;;;;;;;;;;5058379;28;20214;-64
2022/08/27 14:30:19;;;;;;;2.60;2.50;;;;;;;;;;5059052;28;20299;-65
2022/08/27 14:32:48;;;;;;;2.67;2.58;;;;;;;;;;5057213;28;20227;-66
2022/08/27 14:35:15;;;;;;;2.63;2.53;;;;;;;;;;5062965;28;20212;-65
2022/08/27 14:37:43;;;;;;;2.70;2.50;;;;;;;;;;5065235;28;20284;-65
2022/08/27 14:40:12;;;;;;;1.95;1.95;;;;;;;;;;5065824;28;20211;-64
2022/08/27 14:42:40;;;;;;;2.00;2.00;;;;;;;;;;5066699;28;20207;-63
2022/08/27 14:45:08;;;;;;;2.28;2.17;;;;;;;;;;5051953;28;20253;-64
2022/08/27 14:47:36;;;;;;;2.22;2.22;;;;;;;;;;5057404;28;20204;-64
2022/08/27 14:50:04;;;;;;;3.42;2.50;;;;;;;;;;5065239;28;20256;-64
2022/08/27 14:52:31;;;;;;;2.15;2.08;;;;;;;;;;5067023;28;20235;-64
2022/08/27 14:54:58;;;;;;;2.10;2.00;;;;;;;;;;5050317;28;20207;-64
2022/08/27 14:57:25;;;;;;;2.20;2.10;;;;;;;;;;5060478;28;20693;-64
2022/08/27 14:59:53;;;;;;;2.28;2.17;;;;;;;;;;5057694;28;20222;-64
2022/08/27 15:02:22;;;;;;;2.80;2.45;;;;;;;;;;5048348;28;20253;-64